createdAt,value
2018-12-11T00:01:56.284Z,64.74
2018-12-11T00:04:22.239Z,64.47
2018-12-11T00:06:48.251Z,63.57
2018-12-11T00:09:14.210Z,63.39
2018-12-11T00:11:40.249Z,64.56
2018-12-11T00:14:06.201Z,64.49
2018-12-11T00:16:32.209Z,63.95
2018-12-11T00:18:58.162Z,64.92
2018-12-11T00:21:24.152Z,64.89
2018-12-11T00:23:50.213Z,64.29
2018-12-11T00:26:16.175Z,62.93
2018-12-11T00:28:42.161Z,64.26
2018-12-11T00:31:08.154Z,63.28
2018-12-11T00:33:34.171Z,63.38
2018-12-11T00:36:00.135Z,63.69
2018-12-11T00:38:26.163Z,63.13
2018-12-11T00:40:52.145Z,63.63
2018-12-11T00:43:18.164Z,63.11
2018-12-11T00:45:44.132Z,63.83
2018-12-11T00:48:10.134Z,64.78
2018-12-11T00:50:36.168Z,64.07
2018-12-11T00:53:02.198Z,63.24
2018-12-11T00:55:28.223Z,63.65
2018-12-11T00:57:54.309Z,64.10
2018-12-11T01:00:20.394Z,63.61
2018-12-11T01:02:46.452Z,64.14
2018-12-11T01:05:12.540Z,63.21
2018-12-11T01:07:38.500Z,63.72
2018-12-11T01:10:06.710Z,63.25
2018-12-11T01:12:32.708Z,63.94
2018-12-11T01:14:58.668Z,62.73
2018-12-11T01:17:24.683Z,63.42
2018-12-11T01:19:50.637Z,63.32
2018-12-11T01:22:16.642Z,62.71
2018-12-11T01:24:42.612Z,63.30
2018-12-11T01:27:08.608Z,62.87
2018-12-11T01:29:34.580Z,63.37
2018-12-11T01:32:07.675Z,62.99
2018-12-11T01:34:33.642Z,63.80
2018-12-11T01:36:59.596Z,64.07
2018-12-11T01:39:25.584Z,63.08
2018-12-11T01:41:51.560Z,63.71
2018-12-11T01:44:17.573Z,63.21
2018-12-11T01:46:43.531Z,63.98
2018-12-11T01:49:09.489Z,63.68
2018-12-11T01:51:35.505Z,64.94
2018-12-11T01:54:01.465Z,63.87
2018-12-11T01:56:27.451Z,63.78
2018-12-11T01:58:53.471Z,64.07
2018-12-11T02:01:19.435Z,63.09
2018-12-11T02:03:45.457Z,62.29
2018-12-11T02:06:11.451Z,62.24
2018-12-11T02:08:37.410Z,62.76
2018-12-11T02:11:03.438Z,63.08
2018-12-11T02:13:29.428Z,62.60
2018-12-11T02:15:55.430Z,62.37
2018-12-11T02:18:21.427Z,63.52
2018-12-11T02:20:47.436Z,62.80
2018-12-11T02:23:13.413Z,62.73
2018-12-11T02:25:39.413Z,63.66
2018-12-11T02:28:05.496Z,62.41
2018-12-11T02:30:31.480Z,63.70
2018-12-11T02:32:57.482Z,62.97
2018-12-11T02:35:23.447Z,63.37
2018-12-11T02:37:49.455Z,63.03
2018-12-11T02:40:15.479Z,63.66
2018-12-11T02:42:41.499Z,64.24
2018-12-11T02:45:07.477Z,63.18
2018-12-11T02:47:33.476Z,63.97
2018-12-11T02:49:59.462Z,63.92
2018-12-11T02:52:25.449Z,63.75
2018-12-11T02:54:51.453Z,63.54
2018-12-11T02:57:17.440Z,64.37
2018-12-11T02:59:44.512Z,63.78
2018-12-11T03:02:10.601Z,65.76
2018-12-11T03:04:41.589Z,65.13
2018-12-11T03:07:07.943Z,64.32
2018-12-11T03:09:33.899Z,64.47
2018-12-11T03:11:59.938Z,63.40
2018-12-11T03:14:25.908Z,64.97
2018-12-11T03:16:51.918Z,65.72
2018-12-11T03:19:17.892Z,64.63
2018-12-11T03:21:43.888Z,66.03
2018-12-11T03:24:09.870Z,65.27
2018-12-11T03:26:35.873Z,64.07
2018-12-11T03:29:01.827Z,64.03
2018-12-11T03:31:27.843Z,64.15
2018-12-11T03:33:53.903Z,64.37
2018-12-11T03:36:19.967Z,64.42
2018-12-11T03:38:45.963Z,63.53
2018-12-11T03:41:11.957Z,63.48
2018-12-11T03:43:37.955Z,64.06
2018-12-11T03:46:03.989Z,65.29
2018-12-11T03:48:30.061Z,64.54
2018-12-11T03:50:56.151Z,65.38
2018-12-11T03:53:22.149Z,64.29
2018-12-11T03:55:48.154Z,64.42
2018-12-11T03:58:14.805Z,65.35
2018-12-11T04:00:40.808Z,64.83
2018-12-11T04:03:06.818Z,63.76
2018-12-11T04:05:32.801Z,63.80
2018-12-11T04:07:58.843Z,64.32
2018-12-11T04:10:24.805Z,64.40
2018-12-11T04:12:50.808Z,64.53
2018-12-11T04:15:16.892Z,63.10
2018-12-11T04:17:42.888Z,63.41
2018-12-11T04:20:08.861Z,64.66
2018-12-11T04:22:34.889Z,64.62
2018-12-11T04:25:03.074Z,63.94
2018-12-11T04:27:29.137Z,63.49
2018-12-11T04:29:55.084Z,63.75
2018-12-11T04:32:21.097Z,64.76
2018-12-11T04:34:47.063Z,64.41
2018-12-11T04:37:13.036Z,64.91
2018-12-11T04:39:39.015Z,65.22
2018-12-11T04:42:05.010Z,64.24
2018-12-11T04:44:31.003Z,64.65
2018-12-11T04:46:56.980Z,64.09
2018-12-11T04:49:23.771Z,65.09
2018-12-11T04:51:49.737Z,68.75
2018-12-11T04:54:21.045Z,70.39
2018-12-11T04:56:47.279Z,71.24
2018-12-11T04:59:13.363Z,71.31
2018-12-11T05:01:39.416Z,70.91
2018-12-11T05:04:05.413Z,71.67
2018-12-11T05:06:31.391Z,71.25
2018-12-11T05:08:57.391Z,71.07
2018-12-11T05:11:23.365Z,70.84
2018-12-11T05:13:49.363Z,71.36
2018-12-11T05:16:15.355Z,70.59
2018-12-11T05:18:41.337Z,70.89
2018-12-11T05:21:07.321Z,71.10
2018-12-11T05:23:33.343Z,71.93
2018-12-11T05:25:59.313Z,72.84
2018-12-11T05:28:25.311Z,71.22
2018-12-11T05:30:51.317Z,71.59
2018-12-11T05:33:17.343Z,71.11
2018-12-11T05:35:43.290Z,70.95
2018-12-11T05:38:09.276Z,71.00
2018-12-11T05:40:35.264Z,70.93
2018-12-11T05:43:01.288Z,71.04
2018-12-11T05:45:27.288Z,71.40
2018-12-11T05:47:53.231Z,71.72
2018-12-11T05:50:19.223Z,71.78
2018-12-11T05:52:45.182Z,72.00
2018-12-11T05:55:11.179Z,70.79
2018-12-11T05:57:37.143Z,71.34
2018-12-11T06:00:06.828Z,71.60
2018-12-11T06:02:39.659Z,71.54
2018-12-11T06:05:07.001Z,71.13
2018-12-11T06:07:33.011Z,71.13
2018-12-11T06:09:58.975Z,71.17
2018-12-11T06:12:25.632Z,71.74
2018-12-11T06:14:51.636Z,71.07
2018-12-11T06:17:17.617Z,71.44
2018-12-11T06:19:43.614Z,71.44
2018-12-11T06:22:09.597Z,71.53
2018-12-11T06:24:35.640Z,71.91
2018-12-11T06:27:01.592Z,71.56
2018-12-11T06:29:27.602Z,70.95
2018-12-11T06:31:53.630Z,72.44
2018-12-11T06:34:19.628Z,72.04
2018-12-11T06:36:45.589Z,71.19
2018-12-11T06:39:11.585Z,71.83
2018-12-11T06:41:37.617Z,71.39
2018-12-11T06:44:03.680Z,71.50
2018-12-11T06:46:29.761Z,70.77
2018-12-11T06:48:55.733Z,71.28
2018-12-11T06:51:21.735Z,71.00
2018-12-11T06:53:47.760Z,71.31
2018-12-11T06:56:13.816Z,70.70
2018-12-11T06:58:40.848Z,71.24
2018-12-11T07:01:07.037Z,70.89
2018-12-11T07:03:39.972Z,71.71
2018-12-11T07:06:06.044Z,72.19
2018-12-11T07:08:32.122Z,71.00
2018-12-11T07:10:58.081Z,71.14
2018-12-11T07:13:24.092Z,71.43
2018-12-11T07:15:50.098Z,71.35
2018-12-11T07:18:16.092Z,71.55
2018-12-11T07:20:42.104Z,71.43
2018-12-11T07:23:08.062Z,72.17
2018-12-11T07:25:34.055Z,71.82
2018-12-11T07:28:00.016Z,71.34
2018-12-11T07:30:26.033Z,71.70
2018-12-11T07:32:51.972Z,71.45
2018-12-11T07:35:18.088Z,72.19
2018-12-11T07:37:44.068Z,72.85
2018-12-11T07:40:10.104Z,72.48
2018-12-11T07:42:36.102Z,72.73
2018-12-11T07:45:02.210Z,72.00
2018-12-11T07:47:35.233Z,73.19
2018-12-11T07:50:01.238Z,72.56
2018-12-11T07:52:27.845Z,72.12
2018-12-11T07:54:55.318Z,72.79
2018-12-11T07:57:21.439Z,71.96
2018-12-11T07:59:47.442Z,73.04
2018-12-11T08:02:13.411Z,72.34
2018-12-11T08:04:39.410Z,72.35
2018-12-11T08:07:05.406Z,71.87
2018-12-11T08:09:31.388Z,70.93
2018-12-11T08:11:57.393Z,71.77
2018-12-11T08:14:23.356Z,71.53
2018-12-11T08:16:49.350Z,71.56
2018-12-11T08:19:15.338Z,71.06
2018-12-11T08:21:41.365Z,71.75
2018-12-11T08:24:07.336Z,72.30
2018-12-11T08:26:33.399Z,71.21
2018-12-11T08:28:59.361Z,71.86
2018-12-11T08:31:25.371Z,72.06
2018-12-11T08:33:58.245Z,71.42
2018-12-11T08:36:24.268Z,71.71
2018-12-11T08:38:50.234Z,71.61
2018-12-11T08:41:16.222Z,71.23
2018-12-11T08:43:42.224Z,72.20
2018-12-11T08:46:08.197Z,72.15
2018-12-11T08:48:34.238Z,71.35
2018-12-11T08:51:00.307Z,71.85
2018-12-11T08:53:26.953Z,71.88
2018-12-11T08:55:53.147Z,71.69
2018-12-11T08:58:19.211Z,71.13
2018-12-11T09:00:45.282Z,72.09
2018-12-11T09:03:11.234Z,71.68
2018-12-11T09:05:37.240Z,72.52
2018-12-11T09:08:03.216Z,71.81
2018-12-11T09:10:29.234Z,71.59
2018-12-11T09:12:55.620Z,71.74
2018-12-11T09:15:21.612Z,71.74
2018-12-11T09:17:47.690Z,71.27
2018-12-11T09:20:13.664Z,71.89
2018-12-11T09:22:39.657Z,72.16
2018-12-11T09:25:05.864Z,71.79
2018-12-11T09:27:31.869Z,71.55
2018-12-11T09:29:57.828Z,71.94
2018-12-11T09:32:23.798Z,70.82
2018-12-11T09:34:49.790Z,70.97
2018-12-11T09:37:15.761Z,71.20
2018-12-11T09:39:41.845Z,71.67
2018-12-11T09:42:07.908Z,71.25
2018-12-11T09:44:33.861Z,71.95
2018-12-11T09:46:59.837Z,71.40
2018-12-11T09:49:25.816Z,71.14
2018-12-11T09:51:51.908Z,70.67
2018-12-11T09:54:17.876Z,70.23
2018-12-11T09:56:43.941Z,69.79
2018-12-11T09:59:09.916Z,69.96
2018-12-11T10:01:35.903Z,69.93
2018-12-11T10:04:01.937Z,69.72
2018-12-11T10:06:27.923Z,69.71
2018-12-11T10:08:55.973Z,69.50
2018-12-11T10:11:21.947Z,69.48
2018-12-11T10:13:47.938Z,69.58
2018-12-11T10:16:13.939Z,69.66
2018-12-11T10:18:39.881Z,68.98
2018-12-11T10:21:05.896Z,69.27
2018-12-11T10:23:32.312Z,69.55
2018-12-11T10:25:58.317Z,69.13
2018-12-11T10:28:24.262Z,68.96
2018-12-11T10:30:50.247Z,68.54
2018-12-11T10:33:16.200Z,68.70
2018-12-11T10:35:42.202Z,68.39
2018-12-11T10:38:08.168Z,69.12
2018-12-11T10:40:34.323Z,68.23
2018-12-11T10:43:00.298Z,68.03
2018-12-11T10:45:26.292Z,68.46
2018-12-11T10:47:52.270Z,68.20
2018-12-11T10:50:18.288Z,68.23
2018-12-11T10:52:44.254Z,67.86
2018-12-11T10:55:10.266Z,68.30
2018-12-11T10:57:36.234Z,67.65
2018-12-11T11:00:03.984Z,68.66
2018-12-11T11:02:29.964Z,67.12
2018-12-11T11:04:56.032Z,67.42
2018-12-11T11:07:25.344Z,66.69
2018-12-11T11:09:51.582Z,66.85
2018-12-11T11:12:17.696Z,65.97
2018-12-11T11:14:43.755Z,65.88
2018-12-11T11:17:09.830Z,66.08
2018-12-11T11:19:35.801Z,65.82
2018-12-11T11:22:01.817Z,65.66
2018-12-11T11:24:27.796Z,66.30
2018-12-11T11:26:53.796Z,65.83
2018-12-11T11:29:19.902Z,65.90
2018-12-11T11:31:45.943Z,65.84
2018-12-11T11:34:11.912Z,65.71
2018-12-11T11:36:37.904Z,65.29
2018-12-11T11:39:05.722Z,65.00
2018-12-11T11:41:31.722Z,64.91
2018-12-11T11:43:57.928Z,64.23
2018-12-11T11:46:24.143Z,65.00
2018-12-11T11:48:50.135Z,64.78
2018-12-11T11:51:16.092Z,63.75
2018-12-11T11:53:42.084Z,63.64
2018-12-11T11:56:08.052Z,63.97
2018-12-11T11:58:34.060Z,63.87
2018-12-11T12:01:00.038Z,64.40
2018-12-11T12:03:26.007Z,64.43
2018-12-11T12:05:52.014Z,64.33
2018-12-11T12:08:18.011Z,63.74
2018-12-11T12:10:43.970Z,63.40
2018-12-11T12:13:10.013Z,63.82
2018-12-11T12:15:35.989Z,63.41
2018-12-11T12:18:01.997Z,62.93
2018-12-11T12:20:27.987Z,62.91
2018-12-11T12:22:53.988Z,63.77
2018-12-11T12:25:19.950Z,64.56
2018-12-11T12:27:52.794Z,63.41
2018-12-11T12:30:20.440Z,64.14
2018-12-11T12:32:46.447Z,64.63
2018-12-11T12:35:12.464Z,63.80
2018-12-11T12:37:38.418Z,63.01
2018-12-11T12:40:04.868Z,62.65
2018-12-11T12:42:31.076Z,62.05
2018-12-11T12:44:57.080Z,61.72
2018-12-11T12:47:23.057Z,62.05
2018-12-11T12:49:50.681Z,61.62
2018-12-11T12:52:17.152Z,61.31
2018-12-11T12:54:43.167Z,62.08
2018-12-11T12:57:09.226Z,62.38
2018-12-11T12:59:35.270Z,62.87
2018-12-11T13:02:01.338Z,61.77
2018-12-11T13:04:27.310Z,62.08
2018-12-11T13:06:53.370Z,62.29
2018-12-11T13:09:19.336Z,62.26
2018-12-11T13:11:45.362Z,62.42
2018-12-11T13:14:11.354Z,62.55
2018-12-11T13:16:37.332Z,62.68
2018-12-11T13:19:03.436Z,63.32
2018-12-11T13:21:29.469Z,63.62
2018-12-11T13:23:55.444Z,63.45
2018-12-11T13:26:21.410Z,63.38
2018-12-11T13:28:47.420Z,62.65
2018-12-11T13:31:13.384Z,62.50
2018-12-11T13:33:39.373Z,63.00
2018-12-11T13:36:05.338Z,62.42
2018-12-11T13:38:31.470Z,62.54
2018-12-11T13:40:57.756Z,61.57
2018-12-11T13:43:23.791Z,61.96
2018-12-11T13:45:49.758Z,62.20
2018-12-11T13:48:15.870Z,62.80
2018-12-11T13:50:42.259Z,62.59
2018-12-11T13:53:08.276Z,61.84
2018-12-11T13:55:34.283Z,62.24
2018-12-11T13:58:00.232Z,62.02
2018-12-11T14:00:26.241Z,60.69
2018-12-11T14:02:52.200Z,61.47
2018-12-11T14:05:18.205Z,61.80
2018-12-11T14:07:44.185Z,61.82
2018-12-11T14:10:10.182Z,61.26
2018-12-11T14:12:36.229Z,62.02
2018-12-11T14:15:02.329Z,61.29
2018-12-11T14:17:28.331Z,61.11
2018-12-11T14:19:54.357Z,61.40
2018-12-11T14:22:20.359Z,61.52
2018-12-11T14:24:46.530Z,61.47
2018-12-11T14:27:12.683Z,61.85
2018-12-11T14:29:38.683Z,61.82
2018-12-11T14:32:04.965Z,62.12
2018-12-11T14:34:31.088Z,60.33
2018-12-11T14:36:57.217Z,61.20
2018-12-11T14:39:23.191Z,60.55
2018-12-11T14:41:49.206Z,61.48
2018-12-11T14:44:15.163Z,61.38
2018-12-11T14:46:41.226Z,61.74
2018-12-11T14:49:07.200Z,61.44
2018-12-11T14:51:33.195Z,61.56
2018-12-11T14:53:59.288Z,61.37
2018-12-11T14:56:25.288Z,61.15
2018-12-11T14:58:51.238Z,62.03
2018-12-11T15:01:24.230Z,62.34
2018-12-11T15:03:50.512Z,61.73
2018-12-11T15:06:16.590Z,60.54
2018-12-11T15:08:42.593Z,61.54
2018-12-11T15:11:08.574Z,61.83
2018-12-11T15:13:34.577Z,62.17
2018-12-11T15:16:00.556Z,62.51
2018-12-11T15:18:26.561Z,61.91
2018-12-11T15:20:52.621Z,62.37
2018-12-11T15:23:18.635Z,61.97
2018-12-11T15:25:44.607Z,62.50
2018-12-11T15:28:10.608Z,62.27
2018-12-11T15:30:36.576Z,62.14
2018-12-11T15:33:02.586Z,61.00
2018-12-11T15:35:28.568Z,61.64
2018-12-11T15:37:54.558Z,61.26
2018-12-11T15:40:20.549Z,61.46
2018-12-11T15:42:46.581Z,61.24
2018-12-11T15:45:12.570Z,62.48
2018-12-11T15:47:38.647Z,62.69
2018-12-11T15:50:06.015Z,62.28
2018-12-11T15:52:32.013Z,62.59
2018-12-11T15:54:57.985Z,62.87
2018-12-11T15:57:23.953Z,63.03
2018-12-11T15:59:49.947Z,62.67
2018-12-11T16:02:16.015Z,62.67
2018-12-11T16:04:42.015Z,62.73
2018-12-11T16:07:07.997Z,63.21
2018-12-11T16:09:36.243Z,62.06
2018-12-11T16:12:03.244Z,62.75
2018-12-11T16:14:29.220Z,62.72
2018-12-11T16:16:55.211Z,62.66
2018-12-11T16:19:21.332Z,63.70
2018-12-11T16:21:47.288Z,63.29
2018-12-11T16:24:13.295Z,63.36
2018-12-11T16:26:39.366Z,63.21
2018-12-11T16:29:05.353Z,63.10
2018-12-11T16:31:31.338Z,63.00
2018-12-11T16:33:57.325Z,63.27
2018-12-11T16:36:23.292Z,63.04
2018-12-11T16:38:49.300Z,62.82
2018-12-11T16:41:15.293Z,62.90
2018-12-11T16:43:41.355Z,63.63
2018-12-11T16:46:07.312Z,63.05
2018-12-11T16:48:33.303Z,63.22
2018-12-11T16:50:59.264Z,62.26
2018-12-11T16:53:25.290Z,63.12
2018-12-11T16:55:51.373Z,63.45
2018-12-11T16:58:17.471Z,62.97
2018-12-11T17:00:43.545Z,63.73
2018-12-11T17:03:09.632Z,62.92
2018-12-11T17:05:35.624Z,62.32
2018-12-11T17:08:01.602Z,62.18
2018-12-11T17:10:27.664Z,61.63
2018-12-11T17:12:53.657Z,62.33
2018-12-11T17:15:20.196Z,61.65
2018-12-11T17:17:46.320Z,62.35
2018-12-11T17:20:12.349Z,62.17
2018-12-11T17:22:38.331Z,62.16
2018-12-11T17:25:04.454Z,60.75
2018-12-11T17:27:30.435Z,61.79
2018-12-11T17:29:56.459Z,61.05
2018-12-11T17:32:22.419Z,61.12
2018-12-11T17:34:48.415Z,60.22
2018-12-11T17:37:14.411Z,60.41
2018-12-11T17:39:40.431Z,60.85
2018-12-11T17:42:06.465Z,61.88
2018-12-11T17:44:32.464Z,60.82
2018-12-11T17:46:58.785Z,60.59
2018-12-11T17:49:24.767Z,60.58
2018-12-11T17:51:50.828Z,61.29
2018-12-11T17:54:16.853Z,60.95
2018-12-11T17:56:43.152Z,60.98
2018-12-11T17:59:09.687Z,60.74
2018-12-11T18:01:36.316Z,60.54
2018-12-11T18:04:02.364Z,60.89
2018-12-11T18:06:28.380Z,60.76
2018-12-11T18:08:54.384Z,60.77
2018-12-11T18:11:20.392Z,60.45
2018-12-11T18:13:46.568Z,61.18
2018-12-11T18:16:12.655Z,61.23
2018-12-11T18:18:38.631Z,61.44
2018-12-11T18:21:04.681Z,60.99
2018-12-11T18:23:30.685Z,61.36
2018-12-11T18:25:56.721Z,61.79
2018-12-11T18:28:22.693Z,61.36
2018-12-11T18:30:48.651Z,62.42
2018-12-11T18:33:15.141Z,62.76
2018-12-11T18:35:41.136Z,64.19
2018-12-11T18:38:07.169Z,64.42
2018-12-11T18:40:33.134Z,65.67
2018-12-11T18:42:59.236Z,65.98
2018-12-11T18:45:25.189Z,65.78
2018-12-11T18:47:51.232Z,64.90
2018-12-11T18:50:21.375Z,65.14
2018-12-11T18:52:45.204Z,64.82
2018-12-11T18:55:11.269Z,64.96
2018-12-11T18:57:37.323Z,64.90
2018-12-11T19:00:05.078Z,64.43
2018-12-11T19:02:31.088Z,64.65
2018-12-11T19:04:57.050Z,64.65
2018-12-11T19:07:23.124Z,64.93
2018-12-11T19:09:49.116Z,64.81
2018-12-11T19:12:15.149Z,65.07
2018-12-11T19:14:41.960Z,64.76
2018-12-11T19:17:07.976Z,63.97
2018-12-11T19:19:33.942Z,63.83
2018-12-11T19:21:59.961Z,64.38
2018-12-11T19:24:25.984Z,64.50
2018-12-11T19:26:52.006Z,65.60
2018-12-11T19:29:18.010Z,65.41
2018-12-11T19:31:44.000Z,66.02
2018-12-11T19:34:10.237Z,64.94
2018-12-11T19:36:36.223Z,65.86
2018-12-11T19:39:04.830Z,65.95
2018-12-11T19:41:30.831Z,66.08
2018-12-11T19:43:56.828Z,66.00
2018-12-11T19:46:23.344Z,66.31
2018-12-11T19:48:49.351Z,66.22
2018-12-11T19:51:15.386Z,66.75
2018-12-11T19:53:41.420Z,66.19
2018-12-11T19:56:07.378Z,65.66
2018-12-11T19:58:34.012Z,65.82
2018-12-11T20:01:00.176Z,65.89
2018-12-11T20:03:26.645Z,65.84
2018-12-11T20:05:52.660Z,66.54
2018-12-11T20:08:18.703Z,66.70
2018-12-11T20:10:46.780Z,65.85
2018-12-11T20:13:12.821Z,65.90
2018-12-11T20:15:45.843Z,66.14
2018-12-11T20:18:12.942Z,65.48
2018-12-11T20:20:39.267Z,65.04
2018-12-11T20:23:05.294Z,66.25
2018-12-11T20:25:41.649Z,65.99
2018-12-11T20:28:07.712Z,65.93
2018-12-11T20:30:33.701Z,66.61
2018-12-11T20:32:59.730Z,65.80
2018-12-11T20:35:25.738Z,67.02
2018-12-11T20:37:51.773Z,67.12
2018-12-11T20:40:17.766Z,65.57
2018-12-11T20:42:43.898Z,65.69
2018-12-11T20:45:09.918Z,66.03
2018-12-11T20:47:35.948Z,66.23
2018-12-11T20:50:01.932Z,66.34
2018-12-11T20:52:27.950Z,67.12
2018-12-11T20:54:54.058Z,66.81
2018-12-11T20:57:20.146Z,67.03
2018-12-11T20:59:46.230Z,65.92
2018-12-11T21:02:12.316Z,66.29
2018-12-11T21:04:38.318Z,66.19
2018-12-11T21:07:04.304Z,66.05
2018-12-11T21:09:30.369Z,66.73
2018-12-11T21:11:56.571Z,67.25
2018-12-11T21:14:22.573Z,66.47
2018-12-11T21:16:48.656Z,66.57
2018-12-11T21:19:14.910Z,66.67
2018-12-11T21:21:41.218Z,66.44
2018-12-11T21:24:07.222Z,66.34
2018-12-11T21:26:33.203Z,66.44
2018-12-11T21:28:59.224Z,65.64
2018-12-11T21:31:25.223Z,65.36
2018-12-11T21:33:51.249Z,66.19
2018-12-11T21:36:17.301Z,66.84
2018-12-11T21:38:43.288Z,66.85
2018-12-11T21:41:09.262Z,66.85
2018-12-11T21:43:35.290Z,66.56
2018-12-11T21:46:01.295Z,66.89
2018-12-11T21:48:27.362Z,66.93
2018-12-11T21:50:53.376Z,66.13
2018-12-11T21:53:19.367Z,66.80
2018-12-11T21:55:45.460Z,66.48
2018-12-11T21:58:11.599Z,66.89
2018-12-11T22:00:44.717Z,66.24
2018-12-11T22:03:11.130Z,66.92
2018-12-11T22:05:37.154Z,67.06
2018-12-11T22:08:03.145Z,67.60
2018-12-11T22:10:29.746Z,67.45
2018-12-11T22:12:55.761Z,66.69
2018-12-11T22:15:21.743Z,66.52
2018-12-11T22:17:47.743Z,66.79
2018-12-11T22:20:13.728Z,67.50
2018-12-11T22:22:39.755Z,68.18
2018-12-11T22:25:05.759Z,67.83
2018-12-11T22:27:31.771Z,67.82
2018-12-11T22:29:58.049Z,67.00
2018-12-11T22:32:24.005Z,67.52
2018-12-11T22:34:50.013Z,66.98
2018-12-11T22:37:16.001Z,67.65
2018-12-11T22:39:42.173Z,67.69
2018-12-11T22:42:08.170Z,67.36
2018-12-11T22:44:34.849Z,68.39
2018-12-11T22:47:00.816Z,68.06
2018-12-11T22:49:26.765Z,68.27
2018-12-11T22:51:52.769Z,67.94
2018-12-11T22:54:19.068Z,68.26
2018-12-11T22:56:45.070Z,68.85
2018-12-11T22:59:11.032Z,68.19
2018-12-11T23:01:37.057Z,68.74
2018-12-11T23:04:03.066Z,68.73
2018-12-11T23:06:29.023Z,68.29
2018-12-11T23:08:55.119Z,69.18
2018-12-11T23:11:21.072Z,68.94
2018-12-11T23:13:47.077Z,69.16
2018-12-11T23:16:13.057Z,68.66
2018-12-11T23:18:46.069Z,68.67
2018-12-11T23:21:12.054Z,68.13
2018-12-11T23:23:38.173Z,68.49
2018-12-11T23:26:04.181Z,68.60
2018-12-11T23:28:30.193Z,68.21
2018-12-11T23:30:56.175Z,68.22
2018-12-11T23:33:22.164Z,68.35
2018-12-11T23:35:48.131Z,68.84
2018-12-11T23:38:14.106Z,68.75
2018-12-11T23:40:40.192Z,69.10
2018-12-11T23:43:06.164Z,69.58
2018-12-11T23:45:32.170Z,68.44
2018-12-11T23:47:58.161Z,69.34
2018-12-11T23:50:24.153Z,69.26
2018-12-11T23:52:50.128Z,69.09
2018-12-11T23:55:16.110Z,68.62
2018-12-11T23:57:42.075Z,68.53
